• Join FlightAware (Why Join?)
  • Login
  • US Flag 
06:49AM EDT


 

Airport Tracker/Info


-or-


 

Live Flight TrackerFlight Track Log ✈ EJA122 ✈ 30-Jan-2014 ✈ KPNS - KATL

Flight Track Log - Related Links

Times and Time Zones

All times are in EST time to prevent confusion due to time zone crossing. See the EJA122 flight status page for this flight to view local times or setup timezone preferences in your user account.

Time Position Orientation Groundspeed Altitude Reporting Facility
EST Latitude Longitude Course Direction KTS MPH feet Rate Location/Type
01:35PM 30.4800 -87.1297 78° East 207 238 2,800  Level Jacksonville Center
01:36PM 30.5217 -87.0642 54° Northeast 226 260 5,900 2,880 Climbing Jacksonville Center
01:37PM 30.5903 -87.0142 32° Northeast 243 280 8,900 2,400 Climbing Jacksonville Center
01:38PM 30.6589 -86.9567 36° Northeast 275 316 10,700 1,740 Climbing Jacksonville Center
01:39PM 30.7383 -86.8828 39° Northeast 317 365 12,400 1,800 Climbing Jacksonville Center
01:40PM 30.8000 -86.7814 55° Northeast 360 414 14,300 1,800 Climbing Jacksonville Center
01:41PM 30.8636 -86.6800 54° Northeast 371 427 16,000 1,620 Climbing Jacksonville Center
01:42PM 30.9472 -86.6081 36° Northeast 371 427 17,600 1,500 Climbing Jacksonville Center
01:43PM 31.0514 -86.5467 27° Northeast 378 435 19,100 960 Climbing Jacksonville Center
01:46PM 31.2986 -86.3864 29° Northeast 414 476 21,000 540 Climbing Atlanta Center
01:47PM 31.4064 -86.3089 32° Northeast 432 497 21,000  Level Atlanta Center
01:48PM 31.5206 -86.2361 29° Northeast 453 521 21,000  Level Atlanta Center
01:49PM 31.6325 -86.1633 29° Northeast 453 521 21,000  Level Atlanta Center
01:50PM 31.7464 -86.0853 30° Northeast 453 521 21,000  Level Atlanta Center
01:51PM 31.8667 -86.0075 29° Northeast 453 521 21,000  Level Atlanta Center
01:52PM 31.9806 -85.9292 30° Northeast 458 527 21,000  Level Atlanta Center
01:53PM 32.0922 -85.8578 28° Northeast 458 527 21,000  Level Atlanta Center
01:54PM 32.2039 -85.7842 29° Northeast 453 521 21,000  Level Atlanta Center
01:55PM 32.3156 -85.7053 31° Northeast 458 527 21,000  Level Atlanta Center
01:56PM 32.4208 -85.6333 30° Northeast 447 514 21,000  Level Atlanta Center
01:57PM 32.5261 -85.5614 30° Northeast 447 514 21,000  Level Atlanta Center
01:58PM 32.6317 -85.4792 33° Northeast 447 514 21,000  Level Atlanta Center
01:59PM 32.7369 -85.3944 34° Northeast 453 521 21,000 -480 Level Atlanta Center
02:00PM 32.8422 -85.3072 35° Northeast 453 521 20,100 -1,560 Descending Atlanta Center
02:01PM 32.9431 -85.2269 34° Northeast 453 521 17,900 -2,400 Descending Atlanta Center
02:02PM 33.0419 -85.1539 32° Northeast 439 505 15,300 -2,220 Descending Atlanta Center
02:03PM 33.1178 -85.0856 37° Northeast 403 464 13,500 -1,680 Descending Atlanta Center
02:04PM 33.1914 -85.0194 37° Northeast 353 406 12,000 -960 Descending Atlanta Center
02:05PM 33.2567 -84.9381 46° Northeast 325 374 11,600 -600 Descending Atlanta Center
02:06PM 33.3156 -84.8592 48° Northeast 320 368 10,800 -900 Descending Atlanta Center
02:07PM 33.3972 -84.8500 North 284 327 9,900 -900 Descending Atlanta Center
02:08PM 33.4742 -84.8656 350° North 274 315 9,100 -900 Descending Atlanta Center
02:09PM 33.5492 -84.8864 347° North 256 295 8,100 -1,200 Descending Atlanta Center
02:10PM 33.6056 -84.8744 10° North 208 239 6,800 -1,080 Descending Atlanta Center
02:11PM 33.6436 -84.8025 58° Northeast 202 232 6,000 -480 Descending Atlanta Center
02:12PM 33.6503 -84.7350 83° East 186 214 5,900 -540 Descending Atlanta Center
02:13PM 33.6500 -84.6500 90° East 206 237 4,800 -1,080 Descending Atlanta TRACON
02:14PM 33.6500 -84.5833 90° East 177 204 3,600 -1,080 Descending Atlanta TRACON
02:15PM 33.6500 -84.5333 90° East 158 182 2,600 -900 Descending Atlanta TRACON
02:16PM 33.6500 -84.4833 90° East 117 135 1,800 -840 Descending Atlanta TRACON
02:19PM 33.6367 -84.4279 70° East  Level Estimated
02:26PM 33.6367 -84.4279 70° East  Level Estimated
02:27PM 33.6367 -84.4279 70° East  Level Estimated